createdAt,value
2022-09-27T00:02:15.985Z,96.17
2022-09-27T00:04:43.471Z,96.78
2022-09-27T00:07:11.100Z,96.59
2022-09-27T00:09:40.188Z,100.00
2022-09-27T00:12:07.643Z,100.00
2022-09-27T00:14:35.106Z,100.00
2022-09-27T00:17:02.557Z,100.00
2022-09-27T00:19:30.135Z,100.00
2022-09-27T00:21:57.893Z,100.00
2022-09-27T00:24:25.357Z,100.00
2022-09-27T00:26:54.272Z,100.00
2022-09-27T00:29:22.020Z,100.00
2022-09-27T00:31:50.099Z,100.00
2022-09-27T00:34:21.165Z,100.00
2022-09-27T00:36:48.884Z,100.00
2022-09-27T00:39:16.902Z,100.00
2022-09-27T00:41:45.134Z,100.00
2022-09-27T00:44:59.285Z,100.00
2022-09-27T00:47:31.073Z,100.00
2022-09-27T00:50:04.440Z,100.00
2022-09-27T00:52:39.592Z,100.00
2022-09-27T00:55:14.003Z,100.00
2022-09-27T00:57:45.381Z,100.00
2022-09-27T01:00:16.073Z,100.00
2022-09-27T01:02:47.997Z,100.00
2022-09-27T01:05:18.524Z,100.00
2022-09-27T01:07:45.961Z,100.00
2022-09-27T01:10:15.096Z,100.00
2022-09-27T01:12:53.692Z,100.00
2022-09-27T01:15:29.547Z,100.00
2022-09-27T01:18:13.212Z,100.00
2022-09-27T01:21:00.412Z,100.00
2022-09-27T01:23:52.116Z,100.00
2022-09-27T01:26:34.251Z,100.00
2022-09-27T01:29:10.887Z,100.00
2022-09-27T01:31:47.541Z,100.00
2022-09-27T01:34:25.887Z,100.00
2022-09-27T01:36:56.778Z,100.00
2022-09-27T01:39:39.070Z,100.00
2022-09-27T01:42:19.787Z,100.00
2022-09-27T01:44:54.308Z,100.00
2022-09-27T01:47:25.637Z,100.00
2022-09-27T01:50:00.000Z,100.00
2022-09-27T01:52:34.297Z,100.00
2022-09-27T01:55:07.044Z,100.00
2022-09-27T01:57:38.475Z,100.00
2022-09-27T02:00:09.077Z,100.00
2022-09-27T02:02:43.197Z,100.00
2022-09-27T02:05:14.234Z,100.00
2022-09-27T02:07:49.288Z,100.00
2022-09-27T02:10:22.802Z,100.00
2022-09-27T02:12:53.669Z,100.00
2022-09-27T02:15:21.602Z,100.00
2022-09-27T02:17:58.901Z,100.00
2022-09-27T02:20:31.910Z,100.00
2022-09-27T02:23:07.620Z,100.00
2022-09-27T02:25:42.812Z,100.00
2022-09-27T02:28:22.536Z,100.00
2022-09-27T02:30:50.368Z,100.00
2022-09-27T02:33:21.624Z,100.00
2022-09-27T02:35:49.165Z,100.00
2022-09-27T02:38:16.821Z,100.00
2022-09-27T02:40:46.798Z,100.00
2022-09-27T02:43:17.809Z,100.00
2022-09-27T02:45:57.437Z,100.00
2022-09-27T02:48:34.606Z,100.00
2022-09-27T02:51:22.474Z,100.00
2022-09-27T02:54:05.548Z,100.00
2022-09-27T02:56:41.163Z,100.00
2022-09-27T02:59:20.009Z,100.00
2022-09-27T03:02:00.966Z,100.00
2022-09-27T03:04:38.347Z,100.00
2022-09-27T03:07:06.802Z,100.00
2022-09-27T03:09:44.273Z,100.00
2022-09-27T03:12:11.838Z,100.00
2022-09-27T03:14:39.352Z,100.00
2022-09-27T03:17:06.923Z,100.00
2022-09-27T03:19:35.824Z,100.00
2022-09-27T03:22:03.310Z,100.00
2022-09-27T03:24:30.801Z,100.00
2022-09-27T03:26:58.292Z,100.00
2022-09-27T03:29:25.770Z,100.00
2022-09-27T03:31:53.254Z,100.00
2022-09-27T03:34:20.726Z,100.00
2022-09-27T03:36:49.563Z,100.00
2022-09-27T03:39:17.127Z,100.00
2022-09-27T03:41:44.610Z,100.00
2022-09-27T03:44:12.110Z,100.00
2022-09-27T03:46:39.663Z,100.00
2022-09-27T03:49:07.168Z,100.00
2022-09-27T03:51:34.649Z,100.00
2022-09-27T03:54:03.517Z,100.00
2022-09-27T03:56:31.469Z,100.00
2022-09-27T03:58:58.943Z,100.00
2022-09-27T04:01:26.969Z,100.00
2022-09-27T04:03:54.617Z,100.00
2022-09-27T04:06:22.956Z,100.00
2022-09-27T04:08:50.695Z,100.00
2022-09-27T04:11:19.568Z,100.00
2022-09-27T04:13:48.025Z,100.00
2022-09-27T04:16:15.672Z,100.00
2022-09-27T04:18:43.307Z,100.00
2022-09-27T04:21:10.835Z,100.00
2022-09-27T04:23:38.429Z,100.00
2022-09-27T04:26:06.568Z,100.00
2022-09-27T04:28:35.393Z,100.00
2022-09-27T04:31:03.399Z,100.00
2022-09-27T04:33:30.953Z,100.00
2022-09-27T04:36:16.233Z,100.00
2022-09-27T04:38:43.719Z,100.00
2022-09-27T04:41:11.177Z,100.00
2022-09-27T04:43:40.012Z,100.00
2022-09-27T04:46:07.554Z,100.00
2022-09-27T04:48:35.075Z,100.00
2022-09-27T04:51:03.874Z,100.00
2022-09-27T04:53:32.037Z,100.00
2022-09-27T04:56:02.753Z,100.00
2022-09-27T04:58:30.401Z,100.00
2022-09-27T05:00:59.532Z,100.00
2022-09-27T05:03:28.250Z,100.00
2022-09-27T05:05:55.752Z,100.00
2022-09-27T05:08:23.664Z,100.00
2022-09-27T05:10:51.161Z,100.00
2022-09-27T05:13:19.325Z,100.00
2022-09-27T05:15:46.974Z,100.00
2022-09-27T05:18:15.818Z,100.00
2022-09-27T05:20:43.781Z,100.00
2022-09-27T05:23:11.288Z,100.00
2022-09-27T05:25:38.777Z,100.00
2022-09-27T05:28:06.809Z,100.00
2022-09-27T05:30:35.421Z,100.00
2022-09-27T05:33:02.952Z,100.00
2022-09-27T05:35:33.849Z,100.00
2022-09-27T05:38:01.675Z,100.00
2022-09-27T05:40:40.825Z,100.00
2022-09-27T05:43:09.650Z,100.00
2022-09-27T05:45:37.121Z,100.00
2022-09-27T05:48:05.197Z,100.00
2022-09-27T05:50:34.044Z,100.00
2022-09-27T05:53:01.508Z,100.00
2022-09-27T05:55:29.719Z,100.00
2022-09-27T05:57:58.472Z,100.00
2022-09-27T06:00:26.977Z,100.00
2022-09-27T06:02:56.186Z,100.00
2022-09-27T06:05:24.541Z,100.00
2022-09-27T06:07:54.074Z,100.00
2022-09-27T06:10:21.812Z,100.00
2022-09-27T06:12:50.200Z,100.00
2022-09-27T06:15:17.787Z,100.00
2022-09-27T06:17:45.250Z,100.00
2022-09-27T06:20:13.128Z,100.00
2022-09-27T06:22:41.227Z,100.00
2022-09-27T06:25:10.812Z,100.00
2022-09-27T06:27:38.417Z,100.00
2022-09-27T06:30:06.836Z,100.00
2022-09-27T06:32:34.323Z,100.00
2022-09-27T06:35:05.094Z,100.00
2022-09-27T06:37:32.559Z,100.00
2022-09-27T06:40:00.033Z,100.00
2022-09-27T06:42:30.437Z,100.00
2022-09-27T06:44:57.917Z,100.00
2022-09-27T06:47:26.651Z,100.00
2022-09-27T06:49:54.151Z,100.00
2022-09-27T06:52:21.672Z,100.00
2022-09-27T06:54:49.127Z,100.00
2022-09-27T06:57:36.588Z,100.00
2022-09-27T07:00:23.459Z,100.00
2022-09-27T07:02:51.051Z,100.00
2022-09-27T07:05:18.860Z,100.00
2022-09-27T07:07:47.835Z,100.00
2022-09-27T07:10:18.066Z,100.00
2022-09-27T07:12:47.387Z,100.00
2022-09-27T07:15:16.554Z,100.00
2022-09-27T07:17:44.028Z,100.00
2022-09-27T07:20:11.716Z,100.00
2022-09-27T07:22:44.088Z,100.00
2022-09-27T07:25:11.884Z,100.00
2022-09-27T07:27:41.183Z,100.00
2022-09-27T07:30:10.662Z,100.00
2022-09-27T07:32:39.586Z,100.00
2022-09-27T07:35:09.225Z,100.00
2022-09-27T07:37:38.252Z,100.00
2022-09-27T07:40:09.295Z,100.00
2022-09-27T07:42:38.958Z,100.00
2022-09-27T07:45:09.305Z,100.00
2022-09-27T07:47:38.859Z,100.00
2022-09-27T07:50:10.121Z,100.00
2022-09-27T07:52:41.117Z,100.00
2022-09-27T07:55:10.673Z,100.00
2022-09-27T07:57:38.690Z,100.00
2022-09-27T08:00:08.457Z,100.00
2022-09-27T08:02:36.022Z,100.00
2022-09-27T08:05:04.392Z,100.00
2022-09-27T08:07:33.726Z,100.00
2022-09-27T08:10:01.261Z,100.00
2022-09-27T08:12:28.747Z,100.00
2022-09-27T08:14:58.519Z,100.00
2022-09-27T08:17:26.073Z,100.00
2022-09-27T08:19:53.616Z,100.00
2022-09-27T08:22:21.785Z,100.00
2022-09-27T08:24:50.664Z,100.00
2022-09-27T08:27:18.372Z,100.00
2022-09-27T08:29:46.011Z,100.00
2022-09-27T08:32:13.836Z,100.00
2022-09-27T08:34:41.840Z,100.00
2022-09-27T08:37:09.366Z,100.00
2022-09-27T08:39:36.879Z,100.00
2022-09-27T08:42:18.643Z,100.00
2022-09-27T08:44:55.280Z,100.00
2022-09-27T08:47:28.024Z,100.00
2022-09-27T08:50:00.388Z,100.00
2022-09-27T08:52:33.630Z,100.00
2022-09-27T08:55:05.613Z,100.00
2022-09-27T08:57:34.495Z,100.00
2022-09-27T09:00:06.184Z,100.00
2022-09-27T09:02:34.599Z,100.00
2022-09-27T09:05:08.068Z,100.00
2022-09-27T09:07:54.108Z,100.00
2022-09-27T09:10:52.537Z,100.00
2022-09-27T09:13:44.001Z,100.00
2022-09-27T09:16:28.432Z,100.00
2022-09-27T09:19:15.584Z,100.00
2022-09-27T09:21:55.605Z,100.00
2022-09-27T09:24:34.640Z,100.00
2022-09-27T09:27:09.379Z,100.00
2022-09-27T09:29:55.772Z,100.00
2022-09-27T09:32:35.432Z,100.00
2022-09-27T09:35:07.217Z,100.00
2022-09-27T09:37:39.830Z,100.00
2022-09-27T09:40:19.768Z,100.00
2022-09-27T09:42:53.705Z,100.00
2022-09-27T09:45:27.300Z,100.00
2022-09-27T09:48:01.856Z,100.00
2022-09-27T09:50:32.464Z,100.00
2022-09-27T09:53:05.144Z,100.00
2022-09-27T09:55:36.388Z,100.00
2022-09-27T09:58:19.080Z,100.00
2022-09-27T10:00:49.014Z,100.00
2022-09-27T10:03:16.692Z,100.00
2022-09-27T10:05:45.504Z,100.00
2022-09-27T10:08:18.649Z,100.00
2022-09-27T10:10:46.220Z,100.00
2022-09-27T10:13:18.051Z,100.00
2022-09-27T10:15:51.696Z,100.00
2022-09-27T10:18:20.488Z,100.00
2022-09-27T10:20:53.653Z,100.00
2022-09-27T10:23:25.007Z,100.00
2022-09-27T10:25:55.828Z,100.00
2022-09-27T10:28:32.730Z,87.69
2022-09-27T10:31:03.983Z,93.44
2022-09-27T10:33:32.671Z,94.34
2022-09-27T10:36:01.584Z,96.80
2022-09-27T10:38:31.135Z,89.38
2022-09-27T10:41:16.363Z,92.45
2022-09-27T10:43:43.876Z,87.57
2022-09-27T10:46:22.739Z,92.08
2022-09-27T10:49:09.663Z,100.00
2022-09-27T10:51:37.792Z,100.00
2022-09-27T10:54:05.984Z,100.00
2022-09-27T10:56:35.522Z,100.00
2022-09-27T10:59:05.237Z,100.00
2022-09-27T11:01:42.236Z,100.00
2022-09-27T11:04:21.052Z,100.00
2022-09-27T11:06:50.181Z,100.00
2022-09-27T11:09:23.318Z,100.00
2022-09-27T11:11:51.044Z,100.00
2022-09-27T11:14:21.756Z,100.00
2022-09-27T11:17:09.464Z,100.00
2022-09-27T11:20:15.368Z,100.00
2022-09-27T11:23:01.879Z,100.00
2022-09-27T11:25:40.047Z,100.00
2022-09-27T11:28:18.484Z,100.00
2022-09-27T11:30:55.665Z,100.00
2022-09-27T11:33:42.990Z,100.00
2022-09-27T11:36:19.172Z,100.00
2022-09-27T11:39:03.316Z,100.00
2022-09-27T11:41:43.859Z,100.00
2022-09-27T11:44:32.353Z,100.00
2022-09-27T11:47:13.552Z,100.00
2022-09-27T11:50:08.376Z,100.00
2022-09-27T11:52:46.341Z,100.00
2022-09-27T11:55:24.671Z,100.00
2022-09-27T11:58:03.471Z,100.00
2022-09-27T12:00:42.896Z,100.00
2022-09-27T12:03:32.627Z,100.00
2022-09-27T12:06:10.761Z,100.00
2022-09-27T12:08:50.322Z,100.00
2022-09-27T12:11:24.884Z,100.00
2022-09-27T12:13:58.023Z,100.00
2022-09-27T12:16:27.903Z,100.00
2022-09-27T12:18:56.840Z,100.00
2022-09-27T12:21:27.313Z,100.00
2022-09-27T12:23:58.204Z,100.00
2022-09-27T12:26:30.320Z,100.00
2022-09-27T12:29:00.821Z,100.00
2022-09-27T12:31:33.988Z,100.00
2022-09-27T12:34:15.154Z,100.00
2022-09-27T12:36:52.387Z,100.00
2022-09-27T12:39:24.495Z,100.00
2022-09-27T12:42:01.886Z,100.00
2022-09-27T12:44:32.999Z,100.00
2022-09-27T12:47:08.364Z,100.00
2022-09-27T12:49:46.862Z,100.00
2022-09-27T12:52:23.376Z,100.00
2022-09-27T12:55:13.244Z,100.00
2022-09-27T12:57:49.273Z,100.00
2022-09-27T13:00:21.082Z,100.00
2022-09-27T13:03:15.118Z,100.00
2022-09-27T13:06:06.258Z,100.00
2022-09-27T13:08:54.340Z,100.00
2022-09-27T13:11:27.368Z,100.00
2022-09-27T13:13:57.795Z,100.00
2022-09-27T13:16:26.660Z,100.00
2022-09-27T13:19:01.278Z,100.00
2022-09-27T13:22:02.404Z,100.00
2022-09-27T13:24:47.005Z,100.00
2022-09-27T13:27:37.236Z,100.00
2022-09-27T13:30:48.013Z,100.00
2022-09-27T13:33:44.206Z,100.00
2022-09-27T13:36:22.707Z,100.00
2022-09-27T13:39:01.158Z,100.00
2022-09-27T13:41:38.608Z,100.00
2022-09-27T13:44:16.170Z,100.00
2022-09-27T13:46:53.391Z,100.00
2022-09-27T13:49:26.906Z,100.00
2022-09-27T13:51:58.924Z,100.00
2022-09-27T13:54:41.963Z,100.00
2022-09-27T13:57:45.655Z,100.00
2022-09-27T14:00:19.759Z,100.00
2022-09-27T14:02:56.079Z,100.00
2022-09-27T14:05:28.863Z,100.00
2022-09-27T14:07:59.748Z,100.00
2022-09-27T14:10:29.041Z,100.00
2022-09-27T14:12:57.328Z,100.00
2022-09-27T14:15:29.508Z,100.00
2022-09-27T14:17:58.828Z,100.00
2022-09-27T14:20:38.751Z,100.00
2022-09-27T14:23:06.632Z,100.00
2022-09-27T14:25:34.120Z,100.00
2022-09-27T14:28:01.769Z,100.00
2022-09-27T14:30:31.381Z,100.00
2022-09-27T14:33:02.293Z,100.00
2022-09-27T14:35:49.260Z,100.00
2022-09-27T14:38:37.585Z,100.00
2022-09-27T14:41:08.328Z,100.00
2022-09-27T14:43:36.886Z,100.00
2022-09-27T14:46:07.646Z,100.00
2022-09-27T14:48:38.708Z,100.00
2022-09-27T14:51:20.556Z,100.00
2022-09-27T14:53:50.459Z,100.00
2022-09-27T14:56:22.526Z,100.00
2022-09-27T14:58:53.887Z,100.00
2022-09-27T15:01:23.692Z,100.00
2022-09-27T15:03:53.435Z,100.00
2022-09-27T15:06:21.823Z,100.00
2022-09-27T15:08:50.274Z,100.00
2022-09-27T15:11:19.320Z,100.00
2022-09-27T15:13:51.191Z,100.00
2022-09-27T15:16:21.721Z,100.00
2022-09-27T15:19:00.726Z,100.00
2022-09-27T15:21:31.011Z,100.00
2022-09-27T15:23:59.538Z,100.00
2022-09-27T15:26:36.024Z,100.00
2022-09-27T15:29:04.195Z,100.00
2022-09-27T15:31:34.625Z,100.00
2022-09-27T15:34:06.651Z,100.00
2022-09-27T15:36:59.982Z,100.00
2022-09-27T15:39:30.010Z,100.00
2022-09-27T15:42:08.796Z,100.00
2022-09-27T15:44:45.797Z,100.00
2022-09-27T15:47:52.922Z,100.00
2022-09-27T15:50:35.945Z,100.00
2022-09-27T15:53:05.544Z,100.00
2022-09-27T15:55:35.689Z,100.00
2022-09-27T15:58:06.031Z,100.00
2022-09-27T16:00:34.647Z,100.00
2022-09-27T16:03:02.257Z,100.00
2022-09-27T16:05:33.086Z,100.00
2022-09-27T16:08:02.406Z,100.00
2022-09-27T16:10:33.606Z,100.00
2022-09-27T16:13:01.042Z,100.00
2022-09-27T16:15:28.564Z,100.00
2022-09-27T16:17:57.681Z,100.00
2022-09-27T16:20:27.515Z,100.00
2022-09-27T16:22:55.954Z,100.00
2022-09-27T16:25:25.437Z,100.00
2022-09-27T16:27:53.227Z,100.00
2022-09-27T16:30:21.528Z,100.00
2022-09-27T16:32:50.018Z,100.00
2022-09-27T16:35:18.799Z,100.00
2022-09-27T16:37:46.552Z,100.00
2022-09-27T16:40:15.172Z,100.00
2022-09-27T16:42:44.183Z,100.00
2022-09-27T16:45:15.707Z,100.00
2022-09-27T16:47:46.365Z,100.00
2022-09-27T16:50:33.057Z,100.00
2022-09-27T16:53:00.666Z,100.00
2022-09-27T16:55:28.722Z,100.00
2022-09-27T16:57:59.723Z,100.00
2022-09-27T17:00:28.370Z,100.00
2022-09-27T17:02:55.880Z,100.00
2022-09-27T17:05:23.731Z,100.00
2022-09-27T17:07:52.238Z,100.00
2022-09-27T17:10:20.124Z,100.00
2022-09-27T17:12:48.100Z,100.00
2022-09-27T17:15:18.068Z,100.00
2022-09-27T17:17:49.593Z,100.00
2022-09-27T17:20:17.199Z,100.00
2022-09-27T17:22:44.639Z,100.00
2022-09-27T17:25:12.080Z,100.00
2022-09-27T17:27:39.629Z,100.00
2022-09-27T17:30:08.615Z,100.00
2022-09-27T17:32:38.469Z,100.00
2022-09-27T17:35:09.690Z,100.00
2022-09-27T17:37:37.196Z,100.00
2022-09-27T17:40:05.309Z,100.00
2022-09-27T17:42:33.605Z,100.00
2022-09-27T17:45:01.097Z,100.00
2022-09-27T17:47:54.868Z,100.00
2022-09-27T17:50:28.354Z,100.00
2022-09-27T17:52:57.841Z,100.00
2022-09-27T17:55:26.506Z,100.00
2022-09-27T17:57:54.013Z,100.00
2022-09-27T18:00:21.639Z,100.00
2022-09-27T18:02:49.388Z,100.00
2022-09-27T18:05:20.937Z,100.00
2022-09-27T18:07:50.103Z,100.00
2022-09-27T18:10:18.066Z,100.00
2022-09-27T18:12:45.590Z,100.00
2022-09-27T18:15:19.877Z,100.00
2022-09-27T18:17:54.490Z,100.00
2022-09-27T18:20:24.813Z,100.00
2022-09-27T18:22:53.944Z,100.00
2022-09-27T18:25:21.385Z,100.00
2022-09-27T18:27:49.804Z,100.00
2022-09-27T18:30:17.571Z,100.00
2022-09-27T18:32:45.021Z,100.00
2022-09-27T18:35:12.472Z,100.00
2022-09-27T18:37:41.802Z,100.00
2022-09-27T18:40:13.524Z,100.00
2022-09-27T18:42:40.968Z,100.00
2022-09-27T18:45:09.316Z,100.00
2022-09-27T18:47:36.839Z,100.00
2022-09-27T18:50:04.911Z,100.00
2022-09-27T18:52:32.357Z,100.00
2022-09-27T18:54:59.910Z,100.00
2022-09-27T18:57:28.774Z,100.00
2022-09-27T18:59:56.238Z,100.00
2022-09-27T19:02:23.695Z,100.00
2022-09-27T19:04:51.214Z,100.00
2022-09-27T19:07:18.688Z,100.00
2022-09-27T19:09:46.180Z,100.00
2022-09-27T19:12:13.616Z,100.00
2022-09-27T19:14:42.421Z,100.00
2022-09-27T19:17:09.893Z,100.00
2022-09-27T19:19:37.353Z,100.00
2022-09-27T19:22:05.492Z,100.00
2022-09-27T19:24:32.927Z,100.00
2022-09-27T19:27:00.374Z,100.00
2022-09-27T19:29:27.917Z,100.00
2022-09-27T19:31:59.281Z,100.00
2022-09-27T19:34:26.966Z,100.00
2022-09-27T19:36:55.368Z,100.00
2022-09-27T19:39:22.819Z,100.00
2022-09-27T19:41:50.251Z,100.00
2022-09-27T19:44:17.851Z,100.00
2022-09-27T19:46:45.742Z,100.00
2022-09-27T19:49:14.618Z,100.00
2022-09-27T19:51:42.185Z,100.00
2022-09-27T19:54:11.074Z,100.00
2022-09-27T19:56:38.508Z,100.00
2022-09-27T19:59:07.372Z,100.00
2022-09-27T20:01:35.513Z,100.00
2022-09-27T20:04:03.322Z,100.00
2022-09-27T20:06:33.064Z,100.00
2022-09-27T20:09:02.897Z,100.00
2022-09-27T20:11:31.231Z,100.00
2022-09-27T20:13:59.827Z,100.00
2022-09-27T20:16:28.130Z,100.00
2022-09-27T20:18:57.253Z,100.00
2022-09-27T20:21:27.318Z,100.00
2022-09-27T20:23:57.607Z,100.00
2022-09-27T20:26:26.645Z,100.00
2022-09-27T20:28:55.617Z,100.00
2022-09-27T20:31:24.832Z,100.00
2022-09-27T20:33:52.705Z,100.00
2022-09-27T20:36:22.506Z,100.00
2022-09-27T20:38:51.799Z,100.00
2022-09-27T20:41:22.527Z,100.00
2022-09-27T20:43:53.928Z,100.00
2022-09-27T20:46:22.208Z,100.00
2022-09-27T20:48:52.651Z,100.00
2022-09-27T20:51:20.681Z,100.00
2022-09-27T20:53:49.022Z,100.00
2022-09-27T20:56:18.352Z,100.00
2022-09-27T20:58:47.778Z,100.00
2022-09-27T21:01:16.202Z,100.00
2022-09-27T21:03:43.707Z,100.00
2022-09-27T21:06:12.806Z,100.00
2022-09-27T21:08:41.383Z,100.00
2022-09-27T21:11:10.537Z,100.00
2022-09-27T21:13:39.592Z,100.00
2022-09-27T21:16:10.233Z,100.00
2022-09-27T21:18:38.284Z,100.00
2022-09-27T21:21:08.574Z,100.00
2022-09-27T21:23:42.051Z,100.00
2022-09-27T21:26:14.364Z,100.00
2022-09-27T21:28:43.162Z,100.00
2022-09-27T21:31:14.898Z,100.00
2022-09-27T21:33:47.176Z,100.00
2022-09-27T21:36:14.665Z,100.00
2022-09-27T21:38:42.171Z,100.00
2022-09-27T21:41:14.552Z,100.00
2022-09-27T21:43:44.187Z,100.00
2022-09-27T21:46:14.701Z,100.00
2022-09-27T21:48:44.128Z,100.00
2022-09-27T21:51:13.432Z,100.00
2022-09-27T21:53:42.583Z,100.00
2022-09-27T21:56:11.248Z,100.00
2022-09-27T21:58:40.513Z,100.00
2022-09-27T22:01:09.138Z,100.00
2022-09-27T22:03:39.322Z,100.00
2022-09-27T22:06:10.606Z,100.00
2022-09-27T22:08:38.126Z,100.00
2022-09-27T22:11:06.751Z,100.00
2022-09-27T22:13:34.356Z,100.00
2022-09-27T22:16:05.726Z,100.00
2022-09-27T22:18:35.168Z,100.00
2022-09-27T22:21:05.685Z,100.00
2022-09-27T22:23:33.476Z,100.00
2022-09-27T22:26:01.809Z,100.00
2022-09-27T22:28:29.333Z,100.00
2022-09-27T22:30:56.814Z,100.00
2022-09-27T22:33:24.433Z,100.00
2022-09-27T22:35:51.929Z,100.00
2022-09-27T22:38:20.753Z,100.00
2022-09-27T22:40:54.798Z,100.00
2022-09-27T22:43:22.303Z,100.00
2022-09-27T22:45:49.833Z,100.00
2022-09-27T22:48:18.967Z,100.00
2022-09-27T22:50:46.600Z,100.00
2022-09-27T22:53:14.509Z,100.00
2022-09-27T22:55:43.320Z,100.00
2022-09-27T22:58:10.808Z,100.00
2022-09-27T23:00:38.828Z,100.00
2022-09-27T23:03:06.359Z,100.00
2022-09-27T23:05:33.843Z,100.00
2022-09-27T23:08:01.440Z,100.00
2022-09-27T23:10:29.266Z,100.00
2022-09-27T23:12:58.924Z,100.00
2022-09-27T23:15:26.378Z,100.00
2022-09-27T23:17:54.913Z,100.00
2022-09-27T23:20:23.551Z,100.00
2022-09-27T23:22:51.937Z,100.00
2022-09-27T23:25:19.398Z,100.00
2022-09-27T23:27:45.894Z,100.00
2022-09-27T23:30:15.847Z,100.00
2022-09-27T23:32:45.159Z,100.00
2022-09-27T23:35:13.204Z,100.00
2022-09-27T23:37:40.923Z,100.00
2022-09-27T23:40:10.027Z,100.00
2022-09-27T23:42:37.490Z,100.00
2022-09-27T23:45:05.605Z,100.00
2022-09-27T23:47:34.420Z,100.00
2022-09-27T23:50:01.869Z,100.00
2022-09-27T23:52:29.389Z,100.00
2022-09-27T23:54:56.883Z,100.00
2022-09-27T23:57:24.393Z,100.00
2022-09-27T23:59:51.847Z,100.00
